createdAt,value
2022-09-06T03:16:49.204Z,6.80
2022-09-06T03:19:18.130Z,6.90
2022-09-06T03:21:46.347Z,6.90
2022-09-06T03:24:14.493Z,6.90
2022-09-06T03:26:42.682Z,7.00
2022-09-06T03:29:11.001Z,7.00
2022-09-06T03:31:39.205Z,7.10
2022-09-06T03:34:11.139Z,7.10
2022-09-06T03:36:39.578Z,7.10
2022-09-06T03:39:08.037Z,7.00
2022-09-06T03:41:36.172Z,7.00
2022-09-06T03:44:04.765Z,7.00
2022-09-06T03:46:32.885Z,7.00
2022-09-06T03:49:02.059Z,6.90
2022-09-06T03:51:31.540Z,6.90
2022-09-06T03:53:59.805Z,6.80
2022-09-06T03:56:27.941Z,6.80
2022-09-06T03:58:56.232Z,6.80
2022-09-06T04:01:24.561Z,6.80
2022-09-06T04:03:52.871Z,6.70
2022-09-06T04:06:21.196Z,6.60
2022-09-06T04:08:50.837Z,6.60
2022-09-06T04:11:19.320Z,6.50
2022-09-06T04:13:47.814Z,6.50
2022-09-06T04:16:17.778Z,6.40
2022-09-06T04:18:46.058Z,6.40
2022-09-06T04:21:14.415Z,6.40
2022-09-06T04:23:42.747Z,6.50
2022-09-06T04:26:12.739Z,6.40
2022-09-06T04:28:41.055Z,6.50
2022-09-06T04:31:09.646Z,6.50
2022-09-06T04:33:38.767Z,6.40
2022-09-06T04:36:08.775Z,6.40
2022-09-06T04:38:38.327Z,6.40
2022-09-06T04:41:07.653Z,6.40
2022-09-06T04:43:37.620Z,6.80
2022-09-06T04:46:06.956Z,6.60
2022-09-06T04:48:35.416Z,6.60
2022-09-06T04:51:03.811Z,6.60
2022-09-06T04:53:32.284Z,6.70
2022-09-06T04:56:00.550Z,6.70
2022-09-06T04:58:28.999Z,6.80
2022-09-06T05:00:59.106Z,6.80
2022-09-06T05:03:27.579Z,6.90
2022-09-06T05:06:06.328Z,6.90
2022-09-06T05:08:34.711Z,7.00
2022-09-06T05:11:02.957Z,7.10
2022-09-06T05:13:31.398Z,7.20
2022-09-06T05:16:03.792Z,7.40
2022-09-06T05:18:32.552Z,7.50
2022-09-06T05:21:01.227Z,7.60
2022-09-06T05:23:29.659Z,7.60
2022-09-06T05:25:58.180Z,7.70
2022-09-06T05:28:26.571Z,7.80
2022-09-06T05:30:55.156Z,7.90
2022-09-06T05:33:26.115Z,8.00
2022-09-06T05:35:54.320Z,8.00
2022-09-06T05:38:22.407Z,8.20
2022-09-06T05:40:50.587Z,8.40
2022-09-06T05:43:18.791Z,8.90
2022-09-06T05:45:47.134Z,9.50
2022-09-06T05:48:15.426Z,9.90
2022-09-06T05:50:45.031Z,10.10
2022-09-06T05:53:13.250Z,10.30
2022-09-06T05:55:43.160Z,10.60
2022-09-06T05:58:11.656Z,10.80
2022-09-06T06:00:40.087Z,11.10
2022-09-06T06:03:08.307Z,11.50
2022-09-06T06:05:36.613Z,11.80
2022-09-06T06:08:06.655Z,12.10
2022-09-06T06:10:39.638Z,12.60
2022-09-06T06:13:08.229Z,13.30
2022-09-06T06:15:38.806Z,14.30
2022-09-06T06:18:07.324Z,15.00
2022-09-06T06:20:35.681Z,16.30
2022-09-06T06:23:05.354Z,17.20
2022-09-06T06:25:34.326Z,17.50
2022-09-06T06:28:02.691Z,18.00
2022-09-06T06:30:31.054Z,18.50
2022-09-06T06:32:59.319Z,19.60
2022-09-06T06:35:27.999Z,19.90
2022-09-06T06:37:56.511Z,19.90
2022-09-06T06:40:26.233Z,20.50
2022-09-06T06:42:54.697Z,20.80
2022-09-06T06:45:25.093Z,21.30
2022-09-06T06:47:53.779Z,21.30
2022-09-06T06:50:24.358Z,21.20
2022-09-06T06:52:52.692Z,21.40
2022-09-06T06:55:20.962Z,21.80
2022-09-06T06:57:50.508Z,21.70
2022-09-06T07:00:18.926Z,21.50
2022-09-06T07:02:47.227Z,21.80
2022-09-06T07:08:04.142Z,22.40
2022-09-06T07:13:07.034Z,22.40
2022-09-06T07:15:35.369Z,22.20
2022-09-06T07:18:03.476Z,22.40
2022-09-06T07:20:31.982Z,22.40
2022-09-06T07:26:08.521Z,22.70
2022-09-06T07:28:38.163Z,23.40
2022-09-06T07:31:07.245Z,22.60
2022-09-06T07:33:37.295Z,23.30
2022-09-06T07:36:07.657Z,23.10
2022-09-06T07:38:37.037Z,23.20
2022-09-06T07:41:07.469Z,22.60
2022-09-06T07:43:37.998Z,23.00
2022-09-06T07:46:09.579Z,22.10
2022-09-06T07:48:40.164Z,22.60
2022-09-06T07:51:11.429Z,22.90
2022-09-06T07:53:41.207Z,22.70
2022-09-06T07:56:11.351Z,22.40
2022-09-06T07:58:42.145Z,22.20
2022-09-06T08:01:26.072Z,22.50
2022-09-06T08:03:54.926Z,22.80
2022-09-06T08:06:23.408Z,23.20
2022-09-06T08:08:59.854Z,23.40
2022-09-06T08:11:30.232Z,23.00
2022-09-06T08:14:17.960Z,23.10
2022-09-06T08:16:46.147Z,22.50
2022-09-06T08:19:14.482Z,22.50
2022-09-06T08:21:42.673Z,22.90
2022-09-06T08:24:11.326Z,22.80
2022-09-06T08:26:40.762Z,22.50
2022-09-06T08:29:11.011Z,23.00
2022-09-06T08:31:41.014Z,22.90
2022-09-06T08:34:09.679Z,23.00
2022-09-06T08:36:37.765Z,23.30
2022-09-06T08:39:09.151Z,22.70
2022-09-06T08:41:47.551Z,22.30
2022-09-06T08:47:10.319Z,21.10
2022-09-06T08:49:40.933Z,20.60
2022-09-06T08:52:49.410Z,20.10
2022-09-06T08:55:30.618Z,19.80
2022-09-06T08:58:14.394Z,19.40
2022-09-06T09:00:49.617Z,19.50
2022-09-06T09:03:21.051Z,19.50
2022-09-06T09:05:53.797Z,19.10
2022-09-06T09:08:25.626Z,19.10
2022-09-06T09:10:58.952Z,19.60
2022-09-06T09:13:30.780Z,19.40
2022-09-06T09:16:00.421Z,20.00
2022-09-06T09:18:32.546Z,19.70
2022-09-06T09:21:00.753Z,19.70
2022-09-06T09:23:31.029Z,19.40
2022-09-06T09:26:03.758Z,19.20
2022-09-06T09:28:32.328Z,19.30
2022-09-06T09:31:01.868Z,19.30
2022-09-06T09:33:31.897Z,19.40
2022-09-06T09:36:02.365Z,19.20
2022-09-06T09:38:32.637Z,19.10
2022-09-06T09:41:04.866Z,19.00
2022-09-06T09:43:36.087Z,19.00
2022-09-06T09:46:18.374Z,18.90
2022-09-06T09:49:03.974Z,18.90
2022-09-06T09:51:33.741Z,19.10
2022-09-06T09:54:04.564Z,19.10
2022-09-06T09:56:41.143Z,19.20
2022-09-06T09:59:19.652Z,19.10
2022-09-06T10:01:49.279Z,19.30
2022-09-06T10:07:16.281Z,19.40
2022-09-06T10:09:47.361Z,19.20
2022-09-06T10:12:19.551Z,19.20
2022-09-06T10:14:49.105Z,19.00
2022-09-06T10:17:29.758Z,19.10
2022-09-06T10:19:59.328Z,19.20
2022-09-06T10:22:32.628Z,19.30
2022-09-06T10:25:26.403Z,19.20
2022-09-06T10:28:16.175Z,19.30
2022-09-06T10:30:55.090Z,19.30
2022-09-06T10:33:33.737Z,19.20
2022-09-06T10:36:04.717Z,19.40
2022-09-06T10:38:58.358Z,19.60
2022-09-06T10:41:38.982Z,19.80
2022-09-06T10:44:16.537Z,19.80
2022-09-06T10:46:47.044Z,19.90
2022-09-06T10:49:20.018Z,19.90
2022-09-06T10:51:51.927Z,20.30
2022-09-06T10:54:23.903Z,20.60
2022-09-06T10:56:57.129Z,20.90
2022-09-06T10:59:38.052Z,20.80
2022-09-06T11:02:17.109Z,21.00
2022-09-06T11:07:42.756Z,21.70
2022-09-06T11:10:19.965Z,21.70
2022-09-06T11:12:55.222Z,21.40
2022-09-06T11:15:25.894Z,21.50
2022-09-06T11:18:00.141Z,21.60
2022-09-06T11:20:35.745Z,21.70
2022-09-06T11:23:36.741Z,21.30
2022-09-06T11:26:31.667Z,21.20
2022-09-06T11:29:01.453Z,21.40
2022-09-06T11:34:24.232Z,21.60
2022-09-06T11:36:55.959Z,21.10
2022-09-06T11:43:03.845Z,21.50
2022-09-06T11:45:45.801Z,21.60
2022-09-06T11:48:49.689Z,21.60
2022-09-06T11:51:34.282Z,21.10
2022-09-06T11:54:27.056Z,21.20
2022-09-06T11:57:02.602Z,21.10
2022-09-06T11:59:57.469Z,20.90
2022-09-06T12:02:40.892Z,20.80
2022-09-06T12:05:13.721Z,20.80
2022-09-06T12:08:23.988Z,20.70
2022-09-06T12:10:59.154Z,20.50
2022-09-06T12:13:48.617Z,20.30
2022-09-06T12:16:18.811Z,20.30
2022-09-06T12:19:01.331Z,20.10
2022-09-06T12:21:38.984Z,19.90
2022-09-06T12:24:08.473Z,19.60
2022-09-06T12:26:55.675Z,19.80
2022-09-06T12:29:27.307Z,19.90
2022-09-06T12:31:57.671Z,20.00
2022-09-06T12:34:29.733Z,19.80
2022-09-06T12:37:00.206Z,20.00
2022-09-06T12:39:28.790Z,19.90
2022-09-06T12:42:02.184Z,19.90
2022-09-06T12:44:35.956Z,20.10
2022-09-06T12:47:08.256Z,20.00
2022-09-06T12:49:36.433Z,20.00
2022-09-06T12:52:10.775Z,20.10
2022-09-06T12:54:48.798Z,20.10
2022-09-06T12:57:22.074Z,19.90
2022-09-06T12:59:54.950Z,19.90
2022-09-06T13:02:31.301Z,19.90
2022-09-06T13:05:06.205Z,19.80
2022-09-06T13:07:37.144Z,20.00
2022-09-06T13:10:05.652Z,20.00
2022-09-06T13:12:39.151Z,19.90
2022-09-06T13:15:12.869Z,19.90
2022-09-06T13:17:41.117Z,19.90
2022-09-06T13:20:14.399Z,20.00
2022-09-06T13:22:45.436Z,20.10
2022-09-06T13:25:25.187Z,19.90
2022-09-06T13:27:58.139Z,19.90
2022-09-06T13:30:42.180Z,19.80
2022-09-06T13:33:24.348Z,19.80
2022-09-06T13:36:05.760Z,19.70
2022-09-06T13:38:39.402Z,19.80
2022-09-06T13:41:13.749Z,19.80
2022-09-06T13:43:48.175Z,19.90
2022-09-06T13:46:16.454Z,19.80
2022-09-06T13:48:45.132Z,19.80
2022-09-06T13:51:13.863Z,19.60
2022-09-06T13:53:42.089Z,19.60
2022-09-06T13:56:12.009Z,19.60
2022-09-06T13:58:40.214Z,19.60
2022-09-06T14:01:11.640Z,19.60
2022-09-06T14:03:42.874Z,19.70
2022-09-06T14:06:11.492Z,19.70
2022-09-06T14:09:05.394Z,19.70
2022-09-06T14:11:28.477Z,19.70
2022-09-06T14:13:56.601Z,19.60
2022-09-06T14:16:26.100Z,19.60
2022-09-06T14:18:54.345Z,19.60
2022-09-06T14:21:22.816Z,19.40
2022-09-06T14:23:52.322Z,19.50
2022-09-06T14:26:21.181Z,19.50
2022-09-06T14:28:49.976Z,19.40
2022-09-06T14:31:20.709Z,19.30
2022-09-06T14:33:50.547Z,19.30
2022-09-06T14:36:20.661Z,19.30
2022-09-06T14:38:49.373Z,19.20
2022-09-06T14:41:19.004Z,19.30
2022-09-06T14:43:50.906Z,19.20
2022-09-06T14:46:22.106Z,19.30
2022-09-06T14:48:58.438Z,19.30
2022-09-06T14:51:27.081Z,19.20
2022-09-06T14:53:57.092Z,19.10
2022-09-06T14:56:26.344Z,19.10
2022-09-06T14:58:57.390Z,19.10
2022-09-06T15:01:28.675Z,19.10
2022-09-06T15:04:00.191Z,19.00
2022-09-06T15:06:29.047Z,19.00
2022-09-06T15:08:59.516Z,18.90
2022-09-06T15:11:34.642Z,18.90
2022-09-06T15:14:04.145Z,18.80
2022-09-06T15:16:33.719Z,18.70
2022-09-06T15:19:03.859Z,18.70
2022-09-06T15:21:33.348Z,18.70
2022-09-06T15:24:05.668Z,18.80
2022-09-06T15:26:36.913Z,18.70
2022-09-06T15:29:05.200Z,18.60
2022-09-06T15:31:34.989Z,18.60
2022-09-06T15:34:04.554Z,18.70
2022-09-06T15:36:33.462Z,18.60
2022-09-06T15:39:05.659Z,18.50
2022-09-06T15:41:36.710Z,18.50
2022-09-06T15:44:09.681Z,18.40
2022-09-06T15:46:50.058Z,18.30
2022-09-06T15:49:26.937Z,18.20
2022-09-06T15:51:56.514Z,18.10
2022-09-06T15:54:45.181Z,18.00
2022-09-06T15:57:14.914Z,18.00
2022-09-06T15:59:43.085Z,17.90
2022-09-06T16:02:11.825Z,17.90
2022-09-06T16:04:41.505Z,17.80
2022-09-06T16:07:10.085Z,17.80
2022-09-06T16:09:38.254Z,17.80
2022-09-06T16:12:07.452Z,17.50
2022-09-06T16:14:35.795Z,17.50
2022-09-06T16:17:04.029Z,17.40
2022-09-06T16:19:32.193Z,17.30
2022-09-06T16:22:02.539Z,17.20
2022-09-06T16:24:31.967Z,17.00
2022-09-06T16:27:00.442Z,16.90
2022-09-06T16:29:28.566Z,16.80
2022-09-06T16:32:00.011Z,16.70
2022-09-06T16:34:28.940Z,16.50
2022-09-06T16:36:57.201Z,16.40
2022-09-06T16:39:27.111Z,16.20
2022-09-06T16:41:55.464Z,16.10
2022-09-06T16:44:23.568Z,15.90
2022-09-06T16:46:53.048Z,15.80
2022-09-06T16:49:21.555Z,15.60
2022-09-06T16:51:51.383Z,15.40
2022-09-06T16:54:20.385Z,15.20
2022-09-06T16:56:49.841Z,15.10
2022-09-06T16:59:18.126Z,14.90
2022-09-06T17:01:47.412Z,14.70
2022-09-06T17:04:15.967Z,14.50
2022-09-06T17:06:45.808Z,14.30
2022-09-06T17:09:15.327Z,14.20
2022-09-06T17:11:43.469Z,14.00
2022-09-06T17:14:12.984Z,13.90
2022-09-06T17:16:58.586Z,13.70
2022-09-06T17:19:26.883Z,13.60
2022-09-06T17:21:55.256Z,13.40
2022-09-06T17:24:23.439Z,13.30
2022-09-06T17:26:51.714Z,13.10
2022-09-06T17:29:21.454Z,13.00
2022-09-06T17:31:50.018Z,12.90
2022-09-06T17:34:18.205Z,12.80
2022-09-06T17:36:46.666Z,12.70
2022-09-06T17:39:17.754Z,12.60
2022-09-06T17:41:47.961Z,12.50
2022-09-06T17:44:18.224Z,12.40
2022-09-06T17:47:09.216Z,12.30
2022-09-06T17:49:36.978Z,12.20
2022-09-06T17:52:05.291Z,12.10
2022-09-06T17:54:33.649Z,12.00
2022-09-06T17:57:01.784Z,11.90
2022-09-06T17:59:35.163Z,11.80
2022-09-06T18:02:06.006Z,11.80
2022-09-06T18:04:34.334Z,11.80
2022-09-06T18:07:02.622Z,11.60
2022-09-06T18:09:30.853Z,11.50
2022-09-06T18:11:59.317Z,11.40
2022-09-06T18:14:28.913Z,11.30
2022-09-06T18:16:57.282Z,11.20
2022-09-06T18:19:27.647Z,11.20
2022-09-06T18:21:57.432Z,11.10
2022-09-06T18:24:25.716Z,11.00
2022-09-06T18:26:53.883Z,11.00
2022-09-06T18:29:22.115Z,10.90
2022-09-06T18:31:53.631Z,10.80
2022-09-06T18:34:22.572Z,10.70
2022-09-06T18:36:52.440Z,10.60
2022-09-06T18:39:20.594Z,10.60
2022-09-06T18:42:11.172Z,10.50
2022-09-06T18:44:39.662Z,10.40
2022-09-06T18:47:09.976Z,10.30
2022-09-06T18:49:43.266Z,10.30
2022-09-06T18:52:14.048Z,10.20
2022-09-06T18:54:43.997Z,10.10
2022-09-06T18:57:14.751Z,10.10
2022-09-06T18:59:43.073Z,10.00
2022-09-06T19:02:11.474Z,9.90
2022-09-06T19:04:39.794Z,9.80
2022-09-06T19:07:07.983Z,9.80
2022-09-06T19:09:37.634Z,9.70
2022-09-06T19:12:05.940Z,9.70
2022-09-06T19:14:34.253Z,9.60
2022-09-06T19:17:02.953Z,9.60
2022-09-06T19:19:31.386Z,9.50
2022-09-06T19:21:59.593Z,9.50
2022-09-06T19:24:27.966Z,9.40
2022-09-06T19:26:57.523Z,9.30
2022-09-06T19:29:25.739Z,9.30
2022-09-06T19:31:54.542Z,9.20
2022-09-06T19:34:23.030Z,9.20
2022-09-06T19:36:55.218Z,9.20
2022-09-06T19:39:23.633Z,9.20
2022-09-06T19:41:51.730Z,9.10
2022-09-06T19:44:21.380Z,9.10
2022-09-06T19:46:49.904Z,9.00
2022-09-06T19:49:20.196Z,8.90
2022-09-06T19:51:50.868Z,9.00
2022-09-06T19:54:19.781Z,8.90
2022-09-06T19:56:48.496Z,8.80
2022-09-06T19:59:20.289Z,8.80
2022-09-06T20:01:48.488Z,8.70
2022-09-06T20:04:17.012Z,8.60
2022-09-06T20:06:45.386Z,8.60
2022-09-06T20:09:15.965Z,8.50
2022-09-06T20:11:45.132Z,8.40
2022-09-06T20:14:13.505Z,8.40
2022-09-06T20:16:43.387Z,8.30
2022-09-06T20:19:14.596Z,8.30
2022-09-06T20:21:43.041Z,8.30
2022-09-06T20:24:11.479Z,8.40
2022-09-06T20:26:40.517Z,8.20
2022-09-06T20:29:09.035Z,8.10
2022-09-06T20:31:38.558Z,8.00
2022-09-06T20:34:08.746Z,8.00
2022-09-06T20:36:37.424Z,8.00
2022-09-06T20:39:05.816Z,7.90
2022-09-06T20:41:34.930Z,7.80
2022-09-06T20:44:03.763Z,7.80
2022-09-06T20:46:33.987Z,7.70
2022-09-06T20:49:04.752Z,7.70
2022-09-06T20:51:35.488Z,7.60
2022-09-06T20:54:05.443Z,7.60
2022-09-06T20:56:35.598Z,7.60
2022-09-06T20:59:05.246Z,7.60
2022-09-06T21:01:35.842Z,7.60
2022-09-06T21:04:06.275Z,7.50
2022-09-06T21:06:37.754Z,7.50
2022-09-06T21:09:08.046Z,7.50
2022-09-06T21:11:37.082Z,7.50
2022-09-06T21:14:05.991Z,7.40
2022-09-06T21:16:34.665Z,7.30
2022-09-06T21:19:05.765Z,7.30
2022-09-06T21:21:36.279Z,7.30
2022-09-06T21:24:06.435Z,7.20
2022-09-06T21:26:34.895Z,7.20
2022-09-06T21:29:03.626Z,7.20
2022-09-06T21:31:33.567Z,7.20
2022-09-06T21:34:05.225Z,7.10
2022-09-06T21:36:36.780Z,7.00
2022-09-06T21:39:06.593Z,7.00
2022-09-06T21:41:35.520Z,6.90
2022-09-06T21:44:05.454Z,6.90
2022-09-06T21:46:35.248Z,6.80
2022-09-06T21:49:07.175Z,6.80
2022-09-06T21:51:37.282Z,6.80
2022-09-06T21:54:06.273Z,6.80
2022-09-06T21:56:35.975Z,6.80
2022-09-06T21:59:05.614Z,6.80
2022-09-06T22:01:36.465Z,6.70
2022-09-06T22:04:06.174Z,6.70
2022-09-06T22:06:37.882Z,6.60
2022-09-06T22:09:11.039Z,6.60
